Time;durP1;ratioP1;P1;durP2;ratioP2;P2;SDS_P1;SDS_P2;PMS_P1;PMS_P2;Temp;Humidity;BMP_temperature;BMP_pressure;BME280_temperature;BME280_humidity;BME280_pressure;Samples;Min_cycle;Max_cycle;Signal;HPM_P1;HPM_P2
2024/02/22 00:01:44;;;;;;;4.47;3.07;;;9.50;1.00;;;;;;5093837;28;20457;-77
2024/02/22 00:04:12;;;;;;;8.30;3.47;;;9.50;1.00;;;;;;5098042;27;20492;-76
2024/02/22 00:06:38;;;;;;;5.13;3.50;;;9.50;1.00;;;;;;5092143;27;20467;-78
2024/02/22 00:09:08;;;;;;;6.23;3.07;;;9.60;1.00;;;;;;5116820;27;20475;-76
2024/02/22 00:11:35;;;;;;;5.47;3.73;;;9.60;1.00;;;;;;5102313;27;20450;-76
2024/02/22 00:14:02;;;;;;;5.73;3.27;;;9.60;1.00;;;;;;5092302;28;20486;-76
2024/02/22 00:16:30;;;;;;;4.43;3.40;;;9.60;1.00;;;;;;5082890;28;20486;-76
2024/02/22 00:18:59;;;;;;;5.17;2.93;;;9.60;1.00;;;;;;5085155;28;20562;-75
2024/02/22 00:21:26;;;;;;;4.50;3.53;;;9.60;1.00;;;;;;5090528;28;20565;-76
2024/02/22 00:23:55;;;;;;;6.43;3.30;;;9.60;1.00;;;;;;5085485;28;20616;-77
2024/02/22 00:26:22;;;;;;;4.73;3.37;;;9.60;1.00;;;;;;5089397;28;20442;-77
2024/02/22 00:28:49;;;;;;;3.70;3.00;;;9.60;1.00;;;;;;5094910;27;20603;-76
2024/02/22 00:31:16;;;;;;;3.77;2.63;;;9.60;1.00;;;;;;5088786;28;20465;-76
2024/02/22 00:33:45;;;;;;;7.07;3.33;;;9.60;1.00;;;;;;5088584;28;20551;-77
2024/02/22 00:36:14;;;;;;;5.93;3.10;;;9.60;1.00;;;;;;5091193;28;20466;-77
2024/02/22 00:38:41;;;;;;;4.80;2.47;;;9.50;1.00;;;;;;5090656;28;20572;-76
2024/02/22 00:41:07;;;;;;;4.57;2.97;;;9.60;1.00;;;;;;5106307;27;20499;-76
2024/02/22 00:43:34;;;;;;;5.00;3.30;;;9.60;1.00;;;;;;5117080;27;20519;-76
2024/02/22 00:46:01;;;;;;;4.77;3.27;;;9.60;1.00;;;;;;5107842;27;21344;-74
2024/02/22 00:48:28;;;;;;;4.13;2.93;;;9.60;1.00;;;;;;5110684;27;20565;-74
2024/02/22 00:50:55;;;;;;;5.23;3.57;;;9.60;1.00;;;;;;5093636;28;20480;-70
2024/02/22 00:53:23;;;;;;;3.77;2.83;;;9.60;1.00;;;;;;5085444;28;20539;-72
2024/02/22 00:55:50;;;;;;;4.40;2.70;;;9.60;1.00;;;;;;5091347;28;21046;-72
2024/02/22 00:58:17;;;;;;;3.53;2.40;;;9.70;1.00;;;;;;5087388;28;20456;-73
2024/02/22 01:00:44;;;;;;;4.00;2.80;;;9.80;1.00;;;;;;5091646;27;20471;-73
2024/02/22 01:03:11;;;;;;;3.20;2.80;;;9.70;1.00;;;;;;5092378;27;20465;-74
2024/02/22 01:05:37;;;;;;;3.90;2.77;;;9.70;1.00;;;;;;5099962;27;20580;-75
2024/02/22 01:08:05;;;;;;;3.87;2.90;;;9.80;1.00;;;;;;5092037;28;20565;-74
2024/02/22 01:10:34;;;;;;;4.10;2.83;;;9.80;1.00;;;;;;5091148;27;20450;-72
2024/02/22 01:13:01;;;;;;;7.17;3.17;;;9.80;1.00;;;;;;5097624;27;20512;-72
2024/02/22 01:15:28;;;;;;;4.57;2.90;;;9.80;1.00;;;;;;5088050;28;20511;-72
2024/02/22 01:17:55;;;;;;;5.43;3.40;;;9.80;1.00;;;;;;5094070;28;20501;-72
2024/02/22 01:20:22;;;;;;;5.40;3.57;;;9.80;1.00;;;;;;5089992;27;20475;-73
2024/02/22 01:22:48;;;;;;;4.53;3.87;;;9.80;1.00;;;;;;5091652;28;20948;-73
2024/02/22 01:25:15;;;;;;;6.03;3.90;;;9.80;1.00;;;;;;5107296;27;21240;-75
2024/02/22 01:27:46;;;;;;;5.50;3.40;;;9.80;1.00;;;;;;5095365;27;20486;-71
2024/02/22 01:30:13;;;;;;;4.80;3.23;;;9.80;1.00;;;;;;5098509;27;20457;-72
2024/02/22 01:32:41;;;;;;;7.30;3.50;;;9.80;1.00;;;;;;5081206;28;20544;-74
2024/02/22 01:35:08;;;;;;;5.07;3.80;;;9.70;1.00;;;;;;5092231;27;20616;-72
2024/02/22 01:37:35;;;;;;;3.40;2.83;;;9.70;1.00;;;;;;5091755;27;20943;-73
2024/02/22 01:40:03;;;;;;;5.30;3.00;;;9.70;1.00;;;;;;5089411;27;20534;-72
2024/02/22 01:42:29;;;;;;;5.50;2.77;;;9.70;1.00;;;;;;5091084;27;21402;-72
2024/02/22 01:44:58;;;;;;;6.07;2.63;;;9.80;1.00;;;;;;5084633;28;20500;-72
2024/02/22 01:47:25;;;;;;;3.50;2.83;;;9.80;1.00;;;;;;5083240;27;20593;-74
2024/02/22 01:49:52;;;;;;;5.33;2.73;;;9.70;1.00;;;;;;5088927;28;20486;-73
2024/02/22 01:52:21;;;;;;;6.17;2.33;;;9.70;1.00;;;;;;5090234;28;20482;-73
2024/02/22 01:54:48;;;;;;;3.87;2.67;;;9.70;1.00;;;;;;5090980;28;21396;-73
2024/02/22 01:57:16;;;;;;;3.13;2.40;;;9.70;1.00;;;;;;5094403;27;20507;-76
2024/02/22 01:59:43;;;;;;;2.43;2.23;;;9.70;1.00;;;;;;5097837;27;21530;-76
2024/02/22 02:02:12;;;;;;;3.03;2.00;;;9.70;1.00;;;;;;5092096;28;20455;-76
2024/02/22 02:04:39;;;;;;;3.17;1.93;;;9.70;1.00;;;;;;5098527;27;20473;-76
2024/02/22 02:07:08;;;;;;;2.93;2.10;;;9.70;1.00;;;;;;5093605;28;20978;-76
2024/02/22 02:09:35;;;;;;;4.37;2.37;;;9.70;1.00;;;;;;5105778;27;20894;-77
2024/02/22 02:12:02;;;;;;;2.67;2.00;;;9.80;1.00;;;;;;5116211;27;20452;-75
2024/02/22 02:14:29;;;;;;;2.93;2.30;;;9.70;1.00;;;;;;5113078;27;20501;-76
2024/02/22 02:16:56;;;;;;;2.83;2.30;;;9.70;1.00;;;;;;5110433;27;20470;-78
2024/02/22 02:19:26;;;;;;;3.27;2.40;;;9.80;1.00;;;;;;5113229;27;20889;-75
2024/02/22 02:22:07;;;;;;;5.73;2.70;;;9.80;1.00;;;;;;5090029;28;20521;-76
2024/02/22 02:24:42;;;;;;;4.10;2.80;;;9.80;1.00;;;;;;5091707;27;20458;-77
2024/02/22 02:27:11;;;;;;;4.20;2.57;;;9.80;1.00;;;;;;5090628;28;20589;-76
2024/02/22 02:29:39;;;;;;;5.50;2.57;;;9.80;1.00;;;;;;5089611;28;20451;-75
2024/02/22 02:32:07;;;;;;;5.27;2.73;;;9.80;1.00;;;;;;5091209;28;20632;-75
2024/02/22 02:34:34;;;;;;;5.20;3.17;;;9.80;1.00;;;;;;5097754;27;20465;-76
2024/02/22 02:37:01;;;;;;;4.10;2.40;;;9.90;1.00;;;;;;5091634;28;21333;-74
2024/02/22 02:39:28;;;;;;;6.70;2.20;;;9.90;1.00;;;;;;5088168;28;20454;-76
2024/02/22 02:41:55;;;;;;;3.20;2.27;;;10.00;1.00;;;;;;5097753;27;20555;-76
2024/02/22 02:44:23;;;;;;;3.70;1.97;;;10.00;1.00;;;;;;5103892;27;20498;-75
2024/02/22 02:46:50;;;;;;;2.70;2.33;;;10.00;1.00;;;;;;5104787;27;21143;-77
2024/02/22 02:49:17;;;;;;;3.17;1.87;;;10.00;1.00;;;;;;5098784;27;20559;-76
2024/02/22 02:51:47;;;;;;;3.30;2.03;;;9.90;1.00;;;;;;5106550;27;20427;-76
2024/02/22 02:54:14;;;;;;;2.77;2.07;;;10.00;1.00;;;;;;5089074;28;20458;-76
2024/02/22 02:56:41;;;;;;;3.20;2.00;;;10.00;1.00;;;;;;5089576;28;20466;-76
2024/02/22 02:59:11;;;;;;;2.63;2.00;;;10.00;1.00;;;;;;5094500;27;20454;-77
2024/02/22 03:01:46;;;;;;;4.80;1.70;;;10.00;1.00;;;;;;5100761;27;20524;-77
2024/02/22 03:04:13;;;;;;;3.70;1.80;;;10.00;1.00;;;;;;5093549;27;20481;-76
2024/02/22 03:06:40;;;;;;;3.27;2.23;;;10.00;1.00;;;;;;5089406;27;20896;-76
2024/02/22 03:09:07;;;;;;;1.97;1.67;;;10.00;1.00;;;;;;5111333;27;20458;-73
2024/02/22 03:11:35;;;;;;;6.23;2.20;;;10.00;1.00;;;;;;5095840;27;21125;-74
2024/02/22 03:14:02;;;;;;;5.70;2.50;;;10.00;1.00;;;;;;5088574;28;21325;-75
2024/02/22 03:16:29;;;;;;;4.07;1.90;;;10.00;1.00;;;;;;5082696;27;20482;-74
2024/02/22 03:18:58;;;;;;;3.13;1.47;;;10.10;1.00;;;;;;5091739;27;20507;-73
2024/02/22 03:22:01;;;;;;;2.00;1.43;;;10.10;1.00;;;;;;5091252;27;21301;-73
2024/02/22 03:24:28;;;;;;;5.37;1.70;;;10.10;1.00;;;;;;5087333;28;20474;-75
2024/02/22 03:26:55;;;;;;;4.20;1.63;;;10.20;1.00;;;;;;5088632;28;20969;-73
2024/02/22 03:29:25;;;;;;;1.90;1.50;;;10.30;1.00;;;;;;5088179;28;20478;-73
2024/02/22 03:31:52;;;;;;;4.20;1.53;;;10.30;1.00;;;;;;5091582;27;20940;-73
2024/02/22 03:34:21;;;;;;;1.70;1.20;;;10.40;1.00;;;;;;5089889;27;20455;-73
2024/02/22 03:36:50;;;;;;;1.73;1.47;;;10.40;1.00;;;;;;5079285;28;20499;-74
2024/02/22 03:39:20;;;;;;;3.23;1.67;;;10.50;1.00;;;;;;5085799;28;21291;-73
2024/02/22 03:41:47;;;;;;;1.87;1.40;;;10.60;1.00;;;;;;5083861;28;21199;-74
2024/02/22 03:44:14;;;;;;;1.70;1.53;;;10.60;1.00;;;;;;5085267;28;21219;-74
2024/02/22 03:46:46;;;;;;;2.10;1.43;;;10.60;1.00;;;;;;5098158;27;20565;-72
2024/02/22 03:49:13;;;;;;;2.17;1.40;;;10.60;1.00;;;;;;5090250;27;21020;-73
2024/02/22 03:51:42;;;;;;;1.30;1.20;;;10.60;1.00;;;;;;5091199;28;20463;-73
2024/02/22 03:54:09;;;;;;;3.80;2.03;;;10.60;1.00;;;;;;5102321;27;20451;-73
2024/02/22 03:56:37;;;;;;;3.00;1.57;;;10.60;1.00;;;;;;5108967;27;20971;-72
2024/02/22 03:59:04;;;;;;;1.60;1.50;;;10.50;1.00;;;;;;5095407;27;20911;-74
2024/02/22 04:01:31;;;;;;;1.90;1.60;;;10.40;1.00;;;;;;5088691;27;20538;-73
2024/02/22 04:03:58;;;;;;;1.90;1.60;;;10.40;1.00;;;;;;5096547;27;21525;-73
2024/02/22 04:06:25;;;;;;;3.40;1.50;;;10.30;1.00;;;;;;5088187;28;20502;-73
2024/02/22 04:08:57;;;;;;;5.57;1.40;;;10.30;1.00;;;;;;5084144;28;20450;-74
2024/02/22 04:11:24;;;;;;;5.07;2.03;;;10.30;1.00;;;;;;5087182;27;21309;-73
2024/02/22 04:13:51;;;;;;;2.70;1.50;;;10.40;1.00;;;;;;5089462;28;20562;-72
2024/02/22 04:16:18;;;;;;;1.30;1.20;;;10.40;1.00;;;;;;5093902;27;20541;-75
2024/02/22 04:18:45;;;;;;;1.60;1.40;;;10.40;1.00;;;;;;5086355;27;21088;-75
2024/02/22 04:21:12;;;;;;;2.50;1.40;;;10.40;1.00;;;;;;5086066;28;20559;-76
2024/02/22 04:23:41;;;;;;;1.90;1.20;;;10.40;1.00;;;;;;5085610;28;20547;-75
2024/02/22 04:26:12;;;;;;;1.70;1.53;;;10.40;1.00;;;;;;5088277;27;21439;-75
2024/02/22 04:28:39;;;;;;;3.33;1.50;;;10.40;1.00;;;;;;5099098;27;20470;-76
2024/02/22 04:31:06;;;;;;;3.80;2.40;;;10.40;1.00;;;;;;5088174;28;20491;-76
2024/02/22 04:33:34;;;;;;;1.67;1.57;;;10.40;1.00;;;;;;5104398;27;21251;-77
2024/02/22 04:36:01;;;;;;;1.73;1.37;;;10.50;1.00;;;;;;5083212;28;21270;-75
2024/02/22 04:38:28;;;;;;;2.40;1.43;;;10.40;1.00;;;;;;5086940;28;20474;-76
2024/02/22 04:40:55;;;;;;;2.03;1.57;;;10.40;1.00;;;;;;5088340;28;20454;-75
2024/02/22 04:43:23;;;;;;;2.40;1.50;;;10.50;1.00;;;;;;5087374;27;20468;-76
2024/02/22 04:45:50;;;;;;;4.90;2.00;;;10.50;1.00;;;;;;5084799;28;20865;-75
2024/02/22 04:48:17;;;;;;;2.20;2.00;;;10.50;1.00;;;;;;5093397;27;20438;-76
2024/02/22 04:50:44;;;;;;;1.87;1.63;;;10.40;1.00;;;;;;5105197;27;20460;-76
2024/02/22 04:53:12;;;;;;;5.30;1.50;;;10.40;1.00;;;;;;5100232;27;20910;-76
2024/02/22 04:55:39;;;;;;;1.73;1.13;;;10.40;1.00;;;;;;5089445;27;20470;-76
2024/02/22 04:58:06;;;;;;;4.70;1.70;;;10.40;1.00;;;;;;5100728;27;20545;-75
2024/02/22 05:00:35;;;;;;;1.50;1.40;;;10.40;1.00;;;;;;5105096;27;20422;-75
2024/02/22 05:03:03;;;;;;;1.90;1.50;;;10.40;1.00;;;;;;5104484;27;20418;-76
2024/02/22 05:05:30;;;;;;;1.27;1.17;;;10.50;1.00;;;;;;5107990;27;20495;-76
2024/02/22 05:07:58;;;;;;;1.87;1.57;;;10.50;1.00;;;;;;5105528;27;20458;-75
2024/02/22 05:10:25;;;;;;;1.87;1.60;;;10.40;1.00;;;;;;5090205;27;20469;-77
2024/02/22 05:12:51;;;;;;;2.00;1.50;;;10.30;1.00;;;;;;5083674;28;20985;-76
2024/02/22 05:15:19;;;;;;;3.07;2.00;;;10.30;1.00;;;;;;5090520;28;20471;-76
2024/02/22 05:17:48;;;;;;;2.60;2.10;;;10.30;1.00;;;;;;5100507;27;20524;-75
2024/02/22 05:20:15;;;;;;;3.57;1.63;;;10.30;1.00;;;;;;5095160;27;20462;-75
2024/02/22 05:22:42;;;;;;;1.70;1.60;;;10.30;1.00;;;;;;5085151;27;20418;-75
2024/02/22 05:25:10;;;;;;;3.43;2.43;;;10.30;1.00;;;;;;5095665;27;20557;-75
2024/02/22 05:27:37;;;;;;;7.13;5.47;;;10.40;1.00;;;;;;5088719;28;21091;-73
2024/02/22 05:30:04;;;;;;;2.27;2.07;;;10.30;1.00;;;;;;5104472;27;20455;-74
2024/02/22 05:32:32;;;;;;;2.43;2.10;;;10.20;1.00;;;;;;5112553;27;20550;-72
2024/02/22 05:35:00;;;;;;;12.07;6.93;;;10.10;1.00;;;;;;5113181;27;20437;-74
2024/02/22 05:37:27;;;;;;;5.10;2.67;;;10.10;1.00;;;;;;5102689;27;20465;-73
2024/02/22 05:39:57;;;;;;;3.20;2.23;;;10.00;1.00;;;;;;5092006;27;20990;-73
2024/02/22 05:42:24;;;;;;;3.50;3.10;;;9.90;1.00;;;;;;5098565;27;20473;-73
2024/02/22 05:44:50;;;;;;;3.10;1.80;;;9.90;1.00;;;;;;5083706;28;20549;-72
2024/02/22 05:47:17;;;;;;;2.60;1.93;;;9.90;1.00;;;;;;5089088;28;20454;-74
2024/02/22 05:49:47;;;;;;;1.80;1.50;;;9.80;1.00;;;;;;5087969;27;20556;-75
2024/02/22 05:52:16;;;;;;;2.80;1.97;;;9.80;1.00;;;;;;5096896;27;20470;-74
2024/02/22 05:54:45;;;;;;;1.83;1.70;;;9.70;1.00;;;;;;5094616;28;20501;-74
2024/02/22 05:57:13;;;;;;;2.50;2.03;;;9.80;1.00;;;;;;5097107;28;20954;-72
2024/02/22 05:59:41;;;;;;;3.00;2.00;;;9.80;1.00;;;;;;5108296;27;20541;-73
2024/02/22 06:02:08;;;;;;;2.37;2.17;;;9.70;1.00;;;;;;5092873;28;20520;-73
2024/02/22 06:04:35;;;;;;;1.40;1.30;;;9.60;1.00;;;;;;5085216;28;20479;-73
2024/02/22 06:07:02;;;;;;;2.60;1.83;;;9.50;1.00;;;;;;5087501;28;20508;-73
2024/02/22 06:09:30;;;;;;;2.10;1.90;;;9.50;1.00;;;;;;5096705;27;20509;-73
2024/02/22 06:11:58;;;;;;;1.70;1.43;;;9.30;1.00;;;;;;5092699;28;20498;-71
2024/02/22 06:14:25;;;;;;;1.63;1.53;;;9.30;1.00;;;;;;5089263;28;20477;-74
2024/02/22 06:16:52;;;;;;;3.63;1.80;;;9.20;1.00;;;;;;5102094;27;20536;-75
2024/02/22 06:19:19;;;;;;;2.77;1.87;;;9.20;1.00;;;;;;5080673;28;20494;-72
2024/02/22 06:21:46;;;;;;;3.40;2.07;;;9.30;1.00;;;;;;5089523;28;20625;-75
2024/02/22 06:24:13;;;;;;;3.00;1.83;;;9.30;1.00;;;;;;5090850;28;20455;-73
2024/02/22 06:26:42;;;;;;;1.80;1.70;;;9.30;1.00;;;;;;5085570;28;20454;-72
2024/02/22 06:29:10;;;;;;;2.17;1.90;;;9.20;1.00;;;;;;5089320;28;20536;-73
2024/02/22 06:31:38;;;;;;;2.93;2.30;;;9.10;1.00;;;;;;5090661;27;20885;-75
2024/02/22 06:34:05;;;;;;;3.60;2.37;;;9.10;1.00;;;;;;5110723;27;20977;-71
2024/02/22 06:36:33;;;;;;;1.93;1.63;;;9.10;1.00;;;;;;5112432;27;20433;-77
2024/02/22 06:39:00;;;;;;;1.90;1.70;;;9.20;1.00;;;;;;5101279;27;20539;-76
2024/02/22 06:41:27;;;;;;;2.50;2.00;;;9.20;1.00;;;;;;5091545;27;20469;-77
2024/02/22 06:43:56;;;;;;;1.63;1.53;;;9.20;1.00;;;;;;5113375;27;20478;-76
2024/02/22 06:46:24;;;;;;;2.23;1.50;;;9.30;1.00;;;;;;5092307;28;20451;-76
2024/02/22 06:48:52;;;;;;;2.47;1.90;;;9.30;1.00;;;;;;5091326;28;20458;-74
2024/02/22 06:51:21;;;;;;;3.20;2.10;;;9.30;1.00;;;;;;5089664;28;20462;-75
2024/02/22 06:53:50;;;;;;;1.50;1.40;;;9.30;1.00;;;;;;5087915;28;22106;-74
2024/02/22 06:56:19;;;;;;;3.27;1.87;;;9.40;1.00;;;;;;5091653;27;20451;-75
2024/02/22 06:58:46;;;;;;;1.60;1.50;;;9.50;1.00;;;;;;5093280;28;20527;-75
2024/02/22 07:01:15;;;;;;;1.50;1.40;;;9.40;1.00;;;;;;5098995;27;21044;-78
2024/02/22 07:03:42;;;;;;;1.80;1.60;;;9.40;1.00;;;;;;5090582;28;20468;-75
2024/02/22 07:06:09;;;;;;;2.00;1.80;;;9.40;1.00;;;;;;5090655;28;20530;-75
2024/02/22 07:08:37;;;;;;;2.77;2.00;;;9.40;1.00;;;;;;5100429;27;20459;-76
2024/02/22 07:11:05;;;;;;;2.03;1.87;;;9.30;1.00;;;;;;5102911;27;20461;-75
2024/02/22 07:13:34;;;;;;;2.67;2.47;;;9.30;1.00;;;;;;5093539;27;20470;-75
2024/02/22 07:16:01;;;;;;;2.17;1.73;;;9.30;1.00;;;;;;5099112;27;21060;-75
2024/02/22 07:18:29;;;;;;;2.47;2.00;;;9.20;1.00;;;;;;5088726;28;20454;-75
2024/02/22 07:20:58;;;;;;;2.37;2.17;;;9.20;1.00;;;;;;5104255;27;21179;-74
2024/02/22 07:23:25;;;;;;;1.83;1.67;;;9.20;1.00;;;;;;5106281;27;20973;-76
2024/02/22 07:25:52;;;;;;;2.70;2.17;;;9.20;1.00;;;;;;5092804;28;20481;-77
2024/02/22 07:28:20;;;;;;;1.57;1.47;;;9.30;1.00;;;;;;5095100;28;20887;-77
2024/02/22 07:30:47;;;;;;;2.20;2.00;;;9.20;1.00;;;;;;5113033;27;20449;-77
2024/02/22 07:33:14;;;;;;;1.80;1.70;;;9.10;1.00;;;;;;5110837;27;20464;-77
2024/02/22 07:35:43;;;;;;;2.47;2.27;;;9.10;1.00;;;;;;5110739;27;20519;-77
2024/02/22 07:38:10;;;;;;;1.97;1.77;;;9.00;1.00;;;;;;5109351;27;20469;-76
2024/02/22 07:40:37;;;;;;;2.03;1.90;;;9.10;1.00;;;;;;5110755;28;20458;-77
2024/02/22 07:43:05;;;;;;;2.07;1.60;;;9.10;1.00;;;;;;5114735;27;20987;-77
2024/02/22 07:45:32;;;;;;;2.17;1.97;;;9.10;1.00;;;;;;5110651;27;20503;-77
2024/02/22 07:48:01;;;;;;;2.07;1.87;;;9.00;1.00;;;;;;5113021;27;20463;-79
2024/02/22 07:50:28;;;;;;;2.67;2.30;;;9.00;1.00;;;;;;5113269;27;21052;-75
2024/02/22 07:52:56;;;;;;;2.27;2.07;;;9.00;1.00;;;;;;5104521;27;20473;-75
2024/02/22 07:55:24;;;;;;;2.40;2.20;;;9.00;1.00;;;;;;5092796;28;20960;-75
2024/02/22 07:57:51;;;;;;;2.23;2.03;;;9.00;1.00;;;;;;5089848;28;20461;-77
2024/02/22 08:00:19;;;;;;;3.27;2.57;;;9.00;1.00;;;;;;5090607;28;20547;-75
2024/02/22 08:02:46;;;;;;;2.30;2.10;;;8.90;1.00;;;;;;5091696;28;20966;-76
2024/02/22 08:05:13;;;;;;;2.80;2.03;;;8.90;1.00;;;;;;5093725;28;20485;-76
2024/02/22 08:07:42;;;;;;;2.67;1.57;;;8.90;1.00;;;;;;5089515;28;20478;-75
2024/02/22 08:10:11;;;;;;;2.10;1.90;;;8.90;1.00;;;;;;5091484;28;20471;-75
2024/02/22 08:12:38;;;;;;;2.47;2.20;;;8.80;1.00;;;;;;5091278;28;20470;-76
2024/02/22 08:15:07;;;;;;;3.53;1.80;;;8.80;1.00;;;;;;5090751;28;20443;-75
2024/02/22 08:17:37;;;;;;;4.03;2.10;;;8.80;1.00;;;;;;5099492;27;20519;-76
2024/02/22 08:20:04;;;;;;;2.67;2.40;;;8.80;1.00;;;;;;5096574;27;20512;-77
2024/02/22 08:22:31;;;;;;;3.20;2.30;;;8.80;1.00;;;;;;5086957;28;20599;-75
2024/02/22 08:24:58;;;;;;;2.40;2.13;;;8.80;1.00;;;;;;5097604;27;20506;-76
2024/02/22 08:27:26;;;;;;;3.53;2.23;;;8.80;1.00;;;;;;5100261;27;20466;-75
2024/02/22 08:29:53;;;;;;;2.27;2.07;;;8.80;1.00;;;;;;5104492;27;20490;-78
2024/02/22 08:32:21;;;;;;;3.53;2.23;;;8.80;1.00;;;;;;5093671;28;20466;-78
2024/02/22 08:34:49;;;;;;;3.47;2.53;;;8.80;1.00;;;;;;5091601;28;20435;-77
2024/02/22 08:37:16;;;;;;;2.30;2.10;;;8.80;1.00;;;;;;5089367;28;20536;-75
2024/02/22 08:39:43;;;;;;;2.43;2.23;;;8.80;1.00;;;;;;5093374;28;20454;-76
2024/02/22 08:42:10;;;;;;;6.10;2.97;;;8.80;1.00;;;;;;5089257;28;20458;-76
2024/02/22 08:44:39;;;;;;;3.00;2.20;;;8.80;1.00;;;;;;5088754;27;20553;-75
2024/02/22 08:47:09;;;;;;;3.07;2.77;;;8.80;1.00;;;;;;5089396;28;20508;-75
2024/02/22 08:49:36;;;;;;;3.20;2.47;;;8.80;1.00;;;;;;5087987;27;20459;-75
2024/02/22 08:52:06;;;;;;;3.03;2.73;;;8.80;1.00;;;;;;5096186;27;20951;-75
2024/02/22 08:54:36;;;;;;;2.77;2.57;;;8.80;1.00;;;;;;5090391;28;20482;-77
2024/02/22 08:57:03;;;;;;;3.50;3.20;;;8.80;1.00;;;;;;5096385;27;20463;-76
2024/02/22 08:59:31;;;;;;;3.50;2.83;;;8.70;1.00;;;;;;5088842;28;20566;-76
2024/02/22 09:02:03;;;;;;;4.00;2.83;;;8.70;1.00;;;;;;5092679;28;20543;-75
2024/02/22 09:04:29;;;;;;;3.50;3.20;;;8.70;1.00;;;;;;5101586;27;20461;-76
2024/02/22 09:07:00;;;;;;;3.30;3.03;;;8.70;1.00;;;;;;5096422;27;20548;-76
2024/02/22 09:09:28;;;;;;;6.10;3.13;;;8.70;1.00;;;;;;5114294;27;21250;-77
2024/02/22 09:11:55;;;;;;;3.50;3.20;;;8.70;1.00;;;;;;5097256;27;20850;-76
2024/02/22 09:14:22;;;;;;;4.30;3.70;;;8.70;1.00;;;;;;5104574;27;20550;-76
2024/02/22 09:16:49;;;;;;;3.73;3.13;;;8.70;1.00;;;;;;5112923;27;20460;-75
2024/02/22 09:19:17;;;;;;;3.47;3.20;;;8.80;1.00;;;;;;5110463;27;20469;-76
2024/02/22 09:21:47;;;;;;;3.43;3.13;;;8.90;1.00;;;;;;5110371;27;20973;-77
2024/02/22 09:24:14;;;;;;;3.97;3.67;;;8.90;1.00;;;;;;5104411;27;20573;-75
2024/02/22 09:26:42;;;;;;;3.80;3.50;;;9.00;1.00;;;;;;5094187;28;20461;-75
2024/02/22 09:29:10;;;;;;;3.80;3.50;;;9.00;1.00;;;;;;5093407;27;21281;-75
2024/02/22 09:31:37;;;;;;;5.07;3.60;;;9.00;1.00;;;;;;5103965;27;21074;-76
2024/02/22 09:34:07;;;;;;;4.47;4.07;;;9.00;1.00;;;;;;5100923;27;20470;-75
2024/02/22 09:36:35;;;;;;;5.70;3.50;;;9.00;1.00;;;;;;5091704;28;20571;-77
2024/02/22 09:39:03;;;;;;;3.93;3.57;;;9.00;1.00;;;;;;5091574;28;20496;-78
2024/02/22 09:41:30;;;;;;;3.37;3.10;;;9.00;1.00;;;;;;5098930;27;20928;-76
2024/02/22 09:43:58;;;;;;;3.83;3.50;;;9.00;1.00;;;;;;5089397;28;20467;-75
2024/02/22 09:46:26;;;;;;;4.17;3.77;;;9.10;1.00;;;;;;5091964;28;20466;-75
2024/02/22 09:48:53;;;;;;;4.40;3.30;;;9.10;1.00;;;;;;5097695;27;20477;-75
2024/02/22 09:51:23;;;;;;;3.07;2.77;;;9.10;1.00;;;;;;5105473;27;20453;-75
2024/02/22 09:53:52;;;;;;;3.50;3.20;;;9.10;1.00;;;;;;5111680;27;20429;-77
2024/02/22 09:56:19;;;;;;;3.70;3.40;;;9.20;1.00;;;;;;5088743;28;20482;-77
2024/02/22 09:58:48;;;;;;;3.63;3.33;;;9.20;1.00;;;;;;5087471;27;20577;-74
2024/02/22 10:01:15;;;;;;;3.40;3.10;;;9.30;1.00;;;;;;5106620;27;20573;-77
2024/02/22 10:03:48;;;;;;;3.67;3.27;;;9.30;1.00;;;;;;5108703;27;20454;-78
2024/02/22 10:06:19;;;;;;;3.70;3.40;;;9.20;1.00;;;;;;5097708;27;21119;-78
2024/02/22 10:08:47;;;;;;;3.60;3.30;;;9.30;1.00;;;;;;5101726;27;20505;-77
2024/02/22 10:11:19;;;;;;;3.67;3.37;;;9.40;1.00;;;;;;5089348;27;20953;-80
2024/02/22 10:13:46;;;;;;;5.57;3.70;;;9.50;1.00;;;;;;5104092;27;20474;-79
2024/02/22 10:16:14;;;;;;;3.90;3.60;;;9.60;1.00;;;;;;5094336;28;21116;-77
2024/02/22 10:18:42;;;;;;;4.10;3.70;;;9.60;1.00;;;;;;5074248;28;20454;-76
2024/02/22 10:21:17;;;;;;;3.17;2.90;;;9.60;1.00;;;;;;5091501;28;20467;-78
2024/02/22 10:23:45;;;;;;;3.60;3.30;;;9.60;1.00;;;;;;5092624;28;20972;-76
2024/02/22 10:26:13;;;;;;;3.60;3.30;;;9.60;1.00;;;;;;5108910;27;21143;-76
2024/02/22 10:28:41;;;;;;;4.00;3.70;;;9.70;1.00;;;;;;5113431;27;20411;-77
2024/02/22 10:31:08;;;;;;;4.00;3.60;;;9.80;1.00;;;;;;5113033;27;20527;-76
2024/02/22 10:33:36;;;;;;;3.83;3.43;;;9.80;1.00;;;;;;5114152;27;20566;-76
2024/02/22 10:36:03;;;;;;;3.83;3.53;;;9.80;1.00;;;;;;5112891;28;20456;-77
2024/02/22 10:38:31;;;;;;;4.10;3.80;;;9.70;1.00;;;;;;5115354;27;20533;-76
2024/02/22 10:40:58;;;;;;;4.50;4.10;;;9.80;1.00;;;;;;5110968;27;20553;-75
2024/02/22 10:43:28;;;;;;;3.77;3.47;;;9.90;1.00;;;;;;5111458;27;20501;-77
2024/02/22 10:46:02;;;;;;;4.33;4.03;;;9.80;1.00;;;;;;5104839;27;20462;-76
2024/02/22 10:48:35;;;;;;;4.10;3.80;;;9.90;1.00;;;;;;5109711;27;20983;-76
2024/02/22 10:51:04;;;;;;;4.00;3.70;;;10.00;1.00;;;;;;5112220;27;20515;-75
2024/02/22 10:53:36;;;;;;;5.07;4.67;;;10.10;1.00;;;;;;5092552;28;20454;-77
2024/02/22 10:56:07;;;;;;;4.07;3.67;;;10.10;1.00;;;;;;5090231;28;22493;-74
2024/02/22 10:58:39;;;;;;;4.80;4.40;;;10.00;1.00;;;;;;5115147;27;20468;-76
2024/02/22 11:01:10;;;;;;;4.37;3.97;;;10.10;1.00;;;;;;5094334;27;20467;-77
2024/02/22 11:03:38;;;;;;;4.40;4.10;;;10.10;1.00;;;;;;5090047;28;20448;-77
2024/02/22 11:06:07;;;;;;;4.33;3.93;;;10.30;1.00;;;;;;5101847;27;20466;-76
2024/02/22 11:08:34;;;;;;;4.03;3.73;;;10.70;1.00;;;;;;5088107;28;20466;-77
2024/02/22 11:11:06;;;;;;;3.97;3.67;;;10.90;1.00;;;;;;5096259;27;20469;-76
2024/02/22 11:13:34;;;;;;;4.93;4.17;;;11.20;1.00;;;;;;5096011;27;20457;-76
2024/02/22 11:16:12;;;;;;;3.80;3.50;;;11.30;1.00;;;;;;5094952;27;20462;-76
2024/02/22 11:18:40;;;;;;;3.83;3.53;;;11.20;1.00;;;;;;5092705;27;20467;-78
2024/02/22 11:21:12;;;;;;;4.93;3.87;;;11.20;1.00;;;;;;5100413;27;20466;-80
2024/02/22 11:23:40;;;;;;;3.97;3.67;;;11.10;1.00;;;;;;5089286;28;21194;-79
2024/02/22 11:26:07;;;;;;;4.47;4.07;;;11.00;1.00;;;;;;5092956;28;20462;-77
2024/02/22 11:28:33;;;;;;;4.50;4.10;;;10.90;1.00;;;;;;5088953;28;20576;-75
2024/02/22 11:31:10;;;;;;;3.27;3.07;;;10.90;1.00;;;;;;5086612;28;20505;-76
2024/02/22 11:33:37;;;;;;;4.10;3.80;;;10.80;1.00;;;;;;5090720;28;20456;-76
2024/02/22 11:36:06;;;;;;;3.90;3.60;;;10.70;1.00;;;;;;5096163;27;20442;-77
2024/02/22 11:38:34;;;;;;;3.90;3.60;;;10.60;1.00;;;;;;5092299;28;20491;-76
2024/02/22 11:41:05;;;;;;;3.77;3.47;;;10.60;1.00;;;;;;5110129;27;20502;-76
2024/02/22 11:43:31;;;;;;;3.60;3.30;;;10.70;1.00;;;;;;5108545;27;20449;-76
2024/02/22 11:46:00;;;;;;;4.47;3.60;;;10.90;1.00;;;;;;5108748;27;20557;-77
2024/02/22 11:48:27;;;;;;;3.30;3.10;;;10.90;1.00;;;;;;5109683;27;20533;-75
2024/02/22 11:50:54;;;;;;;3.40;3.20;;;11.00;1.00;;;;;;5105317;27;20946;-76
2024/02/22 11:53:22;;;;;;;3.53;3.30;;;11.10;1.00;;;;;;5076689;28;20490;-76
2024/02/22 11:55:51;;;;;;;3.17;2.97;;;11.00;1.00;;;;;;5090981;27;20548;-77
2024/02/22 11:58:18;;;;;;;4.40;4.10;;;11.00;1.00;;;;;;5111505;27;20603;-77
2024/02/22 12:00:45;;;;;;;3.00;2.80;;;11.00;1.00;;;;;;5089674;27;20511;-76
2024/02/22 12:03:14;;;;;;;3.80;3.50;;;10.90;1.00;;;;;;5096435;27;20564;-76
2024/02/22 12:05:41;;;;;;;3.70;3.40;;;10.90;1.00;;;;;;5098920;27;21125;-77
2024/02/22 12:08:08;;;;;;;3.80;3.50;;;10.90;1.00;;;;;;5090702;28;20459;-77
2024/02/22 12:10:38;;;;;;;2.83;2.67;;;11.00;1.00;;;;;;5091445;28;20466;-76
2024/02/22 12:13:06;;;;;;;3.47;3.17;;;11.00;1.00;;;;;;5112394;27;20437;-79
2024/02/22 12:15:34;;;;;;;3.60;3.30;;;10.90;1.00;;;;;;5107848;27;20461;-76
2024/02/22 12:18:02;;;;;;;3.93;3.63;;;10.80;1.00;;;;;;5102828;27;20527;-77
2024/02/22 12:20:29;;;;;;;3.50;3.10;;;10.80;1.00;;;;;;5110554;27;20538;-77
2024/02/22 12:22:56;;;;;;;3.00;2.80;;;10.80;1.00;;;;;;5109926;27;21055;-79
2024/02/22 12:25:23;;;;;;;3.37;3.07;;;10.70;1.00;;;;;;5094209;27;20578;-77
2024/02/22 12:27:56;;;;;;;3.20;3.00;;;10.70;1.00;;;;;;5090251;28;20558;-76
2024/02/22 12:30:23;;;;;;;3.73;3.50;;;10.80;1.00;;;;;;5099547;27;20477;-76
2024/02/22 12:32:51;;;;;;;3.20;2.90;;;10.80;1.00;;;;;;5104238;27;20555;-76
2024/02/22 12:35:19;;;;;;;4.70;3.10;;;10.80;1.00;;;;;;5113031;27;20568;-75
2024/02/22 12:37:48;;;;;;;2.90;2.70;;;10.80;1.00;;;;;;5115238;27;20449;-77
2024/02/22 12:40:15;;;;;;;3.97;3.57;;;10.80;1.00;;;;;;5095858;28;20634;-75
2024/02/22 12:42:42;;;;;;;7.60;4.17;;;10.80;1.00;;;;;;5097427;27;20462;-76
2024/02/22 12:45:11;;;;;;;3.83;3.53;;;10.80;1.00;;;;;;5094962;28;20453;-77
2024/02/22 12:47:39;;;;;;;3.57;3.33;;;10.80;1.00;;;;;;5094680;27;20493;-75
2024/02/22 12:50:07;;;;;;;4.07;3.77;;;10.90;1.00;;;;;;5099399;27;20489;-76
2024/02/22 12:52:34;;;;;;;3.70;3.40;;;11.00;1.00;;;;;;5102644;27;20485;-75
2024/02/22 12:55:01;;;;;;;2.90;2.70;;;11.10;1.00;;;;;;5099106;27;20459;-75
2024/02/22 12:57:28;;;;;;;4.60;3.63;;;11.10;1.00;;;;;;5109362;27;20508;-75
2024/02/22 12:59:55;;;;;;;3.40;3.10;;;11.10;1.00;;;;;;5105454;27;20467;-75
2024/02/22 13:02:23;;;;;;;2.90;2.70;;;11.20;1.00;;;;;;5095405;27;20457;-76
2024/02/22 13:04:51;;;;;;;3.17;2.90;;;11.30;1.00;;;;;;5091115;28;20505;-79
2024/02/22 13:07:18;;;;;;;3.53;3.23;;;11.20;1.00;;;;;;5094758;28;20753;-75